sensor_id;sensor_type;location;lat;lon;timestamp;temperature;humidity
24645;DHT22;12780;45.502;9.146;2023-04-25T00:02:25;15.50;99.90
24645;DHT22;12780;45.502;9.146;2023-04-25T00:04:51;15.50;99.90
24645;DHT22;12780;45.502;9.146;2023-04-25T00:07:17;15.50;99.90
24645;DHT22;12780;45.502;9.146;2023-04-25T00:09:42;15.50;99.90
24645;DHT22;12780;45.502;9.146;2023-04-25T00:12:08;15.50;99.90
24645;DHT22;12780;45.502;9.146;2023-04-25T00:14:34;15.40;99.90
24645;DHT22;12780;45.502;9.146;2023-04-25T00:17:01;15.50;99.90
24645;DHT22;12780;45.502;9.146;2023-04-25T00:19:26;15.50;99.90
24645;DHT22;12780;45.502;9.146;2023-04-25T00:21:56;15.50;99.90
24645;DHT22;12780;45.502;9.146;2023-04-25T00:24:22;15.50;99.90
24645;DHT22;12780;45.502;9.146;2023-04-25T00:26:48;15.50;99.90
24645;DHT22;12780;45.502;9.146;2023-04-25T00:29:13;15.50;99.90
24645;DHT22;12780;45.502;9.146;2023-04-25T00:31:39;15.50;99.90
24645;DHT22;12780;45.502;9.146;2023-04-25T00:34:06;15.50;99.90
24645;DHT22;12780;45.502;9.146;2023-04-25T00:36:33;15.40;99.90
24645;DHT22;12780;45.502;9.146;2023-04-25T00:38:59;15.40;99.90
24645;DHT22;12780;45.502;9.146;2023-04-25T00:41:25;15.50;99.90
24645;DHT22;12780;45.502;9.146;2023-04-25T00:43:52;15.40;99.90
24645;DHT22;12780;45.502;9.146;2023-04-25T00:46:18;15.50;99.90
24645;DHT22;12780;45.502;9.146;2023-04-25T00:48:44;15.50;99.90
24645;DHT22;12780;45.502;9.146;2023-04-25T00:51:12;15.50;99.90
24645;DHT22;12780;45.502;9.146;2023-04-25T00:53:39;15.50;99.90
24645;DHT22;12780;45.502;9.146;2023-04-25T00:56:05;15.50;99.90
24645;DHT22;12780;45.502;9.146;2023-04-25T00:58:31;15.60;99.90
24645;DHT22;12780;45.502;9.146;2023-04-25T01:00:57;15.60;99.90
24645;DHT22;12780;45.502;9.146;2023-04-25T01:03:23;15.50;99.90
24645;DHT22;12780;45.502;9.146;2023-04-25T01:05:50;15.60;99.90
24645;DHT22;12780;45.502;9.146;2023-04-25T01:08:16;15.50;99.90
24645;DHT22;12780;45.502;9.146;2023-04-25T01:10:41;15.50;99.90
24645;DHT22;12780;45.502;9.146;2023-04-25T01:13:07;15.50;99.90
24645;DHT22;12780;45.502;9.146;2023-04-25T01:15:33;15.50;99.90
24645;DHT22;12780;45.502;9.146;2023-04-25T01:18:00;15.60;99.90
24645;DHT22;12780;45.502;9.146;2023-04-25T01:20:27;15.60;99.90
24645;DHT22;12780;45.502;9.146;2023-04-25T01:22:54;15.60;99.90
24645;DHT22;12780;45.502;9.146;2023-04-25T01:25:21;15.60;99.90
24645;DHT22;12780;45.502;9.146;2023-04-25T01:27:47;15.60;99.90
24645;DHT22;12780;45.502;9.146;2023-04-25T01:30:13;15.60;99.90
24645;DHT22;12780;45.502;9.146;2023-04-25T01:32:39;15.60;99.90
24645;DHT22;12780;45.502;9.146;2023-04-25T01:35:09;15.50;99.90
24645;DHT22;12780;45.502;9.146;2023-04-25T01:37:45;15.60;99.90
24645;DHT22;12780;45.502;9.146;2023-04-25T01:40:11;15.60;99.90
24645;DHT22;12780;45.502;9.146;2023-04-25T01:42:40;15.50;99.90
24645;DHT22;12780;45.502;9.146;2023-04-25T01:45:06;15.50;99.90
24645;DHT22;12780;45.502;9.146;2023-04-25T01:47:32;15.50;99.90
24645;DHT22;12780;45.502;9.146;2023-04-25T01:50:01;15.50;99.90
24645;DHT22;12780;45.502;9.146;2023-04-25T01:52:26;15.40;99.90
24645;DHT22;12780;45.502;9.146;2023-04-25T01:54:52;15.50;99.90
24645;DHT22;12780;45.502;9.146;2023-04-25T01:57:18;15.60;99.90
24645;DHT22;12780;45.502;9.146;2023-04-25T01:59:44;15.40;99.90
24645;DHT22;12780;45.502;9.146;2023-04-25T02:02:09;15.40;99.90
24645;DHT22;12780;45.502;9.146;2023-04-25T02:04:35;15.40;99.90
24645;DHT22;12780;45.502;9.146;2023-04-25T02:07:01;15.40;99.90
24645;DHT22;12780;45.502;9.146;2023-04-25T02:09:26;15.30;99.90
24645;DHT22;12780;45.502;9.146;2023-04-25T02:11:52;15.40;99.90
24645;DHT22;12780;45.502;9.146;2023-04-25T02:14:18;15.30;99.90
24645;DHT22;12780;45.502;9.146;2023-04-25T02:16:44;15.30;99.90
24645;DHT22;12780;45.502;9.146;2023-04-25T02:19:10;15.30;99.90
24645;DHT22;12780;45.502;9.146;2023-04-25T02:21:36;15.30;99.90
24645;DHT22;12780;45.502;9.146;2023-04-25T02:24:02;15.30;99.90
24645;DHT22;12780;45.502;9.146;2023-04-25T02:26:28;15.20;99.90
24645;DHT22;12780;45.502;9.146;2023-04-25T02:28:54;15.20;99.90
24645;DHT22;12780;45.502;9.146;2023-04-25T02:31:20;15.20;99.90
24645;DHT22;12780;45.502;9.146;2023-04-25T02:33:45;15.20;99.90
24645;DHT22;12780;45.502;9.146;2023-04-25T02:36:11;15.20;99.90
24645;DHT22;12780;45.502;9.146;2023-04-25T02:38:37;15.20;99.90
24645;DHT22;12780;45.502;9.146;2023-04-25T02:41:02;15.10;99.90
24645;DHT22;12780;45.502;9.146;2023-04-25T02:43:28;15.10;99.90
24645;DHT22;12780;45.502;9.146;2023-04-25T02:45:53;15.00;99.90
24645;DHT22;12780;45.502;9.146;2023-04-25T02:48:19;15.00;99.90
24645;DHT22;12780;45.502;9.146;2023-04-25T02:50:45;15.10;99.90
24645;DHT22;12780;45.502;9.146;2023-04-25T02:53:11;15.00;99.90
24645;DHT22;12780;45.502;9.146;2023-04-25T02:55:36;15.00;99.90
24645;DHT22;12780;45.502;9.146;2023-04-25T02:58:02;14.90;99.90
24645;DHT22;12780;45.502;9.146;2023-04-25T03:00:27;15.00;99.90
24645;DHT22;12780;45.502;9.146;2023-04-25T03:02:53;15.00;99.90
24645;DHT22;12780;45.502;9.146;2023-04-25T03:05:18;15.00;99.90
24645;DHT22;12780;45.502;9.146;2023-04-25T03:07:44;14.90;99.90
24645;DHT22;12780;45.502;9.146;2023-04-25T03:10:11;14.90;99.90
24645;DHT22;12780;45.502;9.146;2023-04-25T03:12:36;14.90;99.90
24645;DHT22;12780;45.502;9.146;2023-04-25T03:15:02;14.90;99.90
24645;DHT22;12780;45.502;9.146;2023-04-25T03:17:29;14.90;99.90
24645;DHT22;12780;45.502;9.146;2023-04-25T03:19:55;15.00;99.90
24645;DHT22;12780;45.502;9.146;2023-04-25T03:22:21;14.80;99.90
24645;DHT22;12780;45.502;9.146;2023-04-25T03:24:47;14.80;99.90
24645;DHT22;12780;45.502;9.146;2023-04-25T03:27:12;14.80;99.90
24645;DHT22;12780;45.502;9.146;2023-04-25T03:29:38;14.80;99.90
24645;DHT22;12780;45.502;9.146;2023-04-25T03:32:04;14.70;99.90
24645;DHT22;12780;45.502;9.146;2023-04-25T03:34:29;14.70;99.90
24645;DHT22;12780;45.502;9.146;2023-04-25T03:36:55;14.70;99.90
24645;DHT22;12780;45.502;9.146;2023-04-25T03:39:21;14.70;99.90
24645;DHT22;12780;45.502;9.146;2023-04-25T03:41:46;14.70;99.90
24645;DHT22;12780;45.502;9.146;2023-04-25T03:44:12;14.80;99.90
24645;DHT22;12780;45.502;9.146;2023-04-25T03:46:38;14.60;99.90
24645;DHT22;12780;45.502;9.146;2023-04-25T03:49:03;14.50;99.90
24645;DHT22;12780;45.502;9.146;2023-04-25T03:51:29;14.60;99.90
24645;DHT22;12780;45.502;9.146;2023-04-25T03:53:54;14.60;99.90
24645;DHT22;12780;45.502;9.146;2023-04-25T03:56:20;14.60;99.90
24645;DHT22;12780;45.502;9.146;2023-04-25T03:58:46;14.60;99.90
24645;DHT22;12780;45.502;9.146;2023-04-25T04:01:11;14.60;99.90
24645;DHT22;12780;45.502;9.146;2023-04-25T04:03:37;14.60;99.90
24645;DHT22;12780;45.502;9.146;2023-04-25T04:06:04;14.60;99.90
24645;DHT22;12780;45.502;9.146;2023-04-25T04:08:31;14.60;99.90
24645;DHT22;12780;45.502;9.146;2023-04-25T04:10:57;14.60;99.90
24645;DHT22;12780;45.502;9.146;2023-04-25T04:13:25;14.60;99.90
24645;DHT22;12780;45.502;9.146;2023-04-25T04:15:50;14.70;99.90
24645;DHT22;12780;45.502;9.146;2023-04-25T04:18:16;14.70;99.90
24645;DHT22;12780;45.502;9.146;2023-04-25T04:20:41;14.70;99.90
24645;DHT22;12780;45.502;9.146;2023-04-25T04:23:07;14.70;99.90
24645;DHT22;12780;45.502;9.146;2023-04-25T04:25:32;14.80;99.90
24645;DHT22;12780;45.502;9.146;2023-04-25T04:27:59;14.80;99.90
24645;DHT22;12780;45.502;9.146;2023-04-25T04:30:26;14.80;99.90
24645;DHT22;12780;45.502;9.146;2023-04-25T04:32:55;14.70;99.90
24645;DHT22;12780;45.502;9.146;2023-04-25T04:35:21;14.80;99.90
24645;DHT22;12780;45.502;9.146;2023-04-25T04:37:47;14.70;99.90
24645;DHT22;12780;45.502;9.146;2023-04-25T04:40:14;14.70;99.90
24645;DHT22;12780;45.502;9.146;2023-04-25T04:42:41;14.60;99.90
24645;DHT22;12780;45.502;9.146;2023-04-25T04:45:07;14.60;99.90
24645;DHT22;12780;45.502;9.146;2023-04-25T04:47:33;14.70;99.90
24645;DHT22;12780;45.502;9.146;2023-04-25T04:49:59;14.60;99.90
24645;DHT22;12780;45.502;9.146;2023-04-25T04:52:24;14.70;99.90
24645;DHT22;12780;45.502;9.146;2023-04-25T04:54:50;14.80;99.90
24645;DHT22;12780;45.502;9.146;2023-04-25T04:57:16;14.70;99.90
24645;DHT22;12780;45.502;9.146;2023-04-25T04:59:42;14.70;99.90
24645;DHT22;12780;45.502;9.146;2023-04-25T05:02:07;14.70;99.90
24645;DHT22;12780;45.502;9.146;2023-04-25T05:04:33;14.80;99.90
24645;DHT22;12780;45.502;9.146;2023-04-25T05:06:58;14.80;99.90
24645;DHT22;12780;45.502;9.146;2023-04-25T05:09:24;15.00;99.90
24645;DHT22;12780;45.502;9.146;2023-04-25T05:11:51;14.80;99.90
24645;DHT22;12780;45.502;9.146;2023-04-25T05:14:17;14.80;99.90
24645;DHT22;12780;45.502;9.146;2023-04-25T05:16:43;14.90;99.90
24645;DHT22;12780;45.502;9.146;2023-04-25T05:19:09;14.90;99.90
24645;DHT22;12780;45.502;9.146;2023-04-25T05:21:34;14.80;99.90
24645;DHT22;12780;45.502;9.146;2023-04-25T05:24:01;14.80;99.90
24645;DHT22;12780;45.502;9.146;2023-04-25T05:26:26;14.80;99.90
24645;DHT22;12780;45.502;9.146;2023-04-25T05:28:56;14.90;99.90
24645;DHT22;12780;45.502;9.146;2023-04-25T05:31:22;14.90;99.90
24645;DHT22;12780;45.502;9.146;2023-04-25T05:33:47;14.90;99.90
24645;DHT22;12780;45.502;9.146;2023-04-25T05:36:13;15.00;99.90
24645;DHT22;12780;45.502;9.146;2023-04-25T05:38:38;15.00;99.90
24645;DHT22;12780;45.502;9.146;2023-04-25T05:41:04;15.00;99.90
24645;DHT22;12780;45.502;9.146;2023-04-25T05:43:30;15.10;99.90
24645;DHT22;12780;45.502;9.146;2023-04-25T05:45:56;15.20;99.90
24645;DHT22;12780;45.502;9.146;2023-04-25T05:48:21;15.20;99.90
24645;DHT22;12780;45.502;9.146;2023-04-25T05:50:47;15.20;99.90
24645;DHT22;12780;45.502;9.146;2023-04-25T05:53:12;15.20;99.90
24645;DHT22;12780;45.502;9.146;2023-04-25T05:55:38;15.20;99.90
24645;DHT22;12780;45.502;9.146;2023-04-25T05:58:05;15.20;99.90
24645;DHT22;12780;45.502;9.146;2023-04-25T06:00:30;15.20;99.90
24645;DHT22;12780;45.502;9.146;2023-04-25T06:02:56;15.20;99.90
24645;DHT22;12780;45.502;9.146;2023-04-25T06:05:21;15.30;99.90
24645;DHT22;12780;45.502;9.146;2023-04-25T06:07:47;15.20;99.90
24645;DHT22;12780;45.502;9.146;2023-04-25T06:10:12;15.30;99.90
24645;DHT22;12780;45.502;9.146;2023-04-25T06:12:38;15.30;99.90
24645;DHT22;12780;45.502;9.146;2023-04-25T06:15:05;15.20;99.90
24645;DHT22;12780;45.502;9.146;2023-04-25T06:17:30;15.30;99.90
24645;DHT22;12780;45.502;9.146;2023-04-25T06:19:56;15.30;99.90
24645;DHT22;12780;45.502;9.146;2023-04-25T06:22:21;15.30;99.90
24645;DHT22;12780;45.502;9.146;2023-04-25T06:24:47;15.40;99.90
24645;DHT22;12780;45.502;9.146;2023-04-25T06:27:12;15.40;99.90
24645;DHT22;12780;45.502;9.146;2023-04-25T06:29:38;15.60;99.90
24645;DHT22;12780;45.502;9.146;2023-04-25T06:32:04;15.50;99.90
24645;DHT22;12780;45.502;9.146;2023-04-25T06:34:30;15.50;99.90
24645;DHT22;12780;45.502;9.146;2023-04-25T06:36:55;15.50;99.90
24645;DHT22;12780;45.502;9.146;2023-04-25T06:39:21;15.60;99.90
24645;DHT22;12780;45.502;9.146;2023-04-25T06:41:48;15.70;99.90
24645;DHT22;12780;45.502;9.146;2023-04-25T06:44:14;15.70;99.90
24645;DHT22;12780;45.502;9.146;2023-04-25T06:46:40;15.70;99.90
24645;DHT22;12780;45.502;9.146;2023-04-25T06:49:06;15.80;99.90
24645;DHT22;12780;45.502;9.146;2023-04-25T06:51:32;15.90;99.90
24645;DHT22;12780;45.502;9.146;2023-04-25T06:53:57;15.90;99.90
24645;DHT22;12780;45.502;9.146;2023-04-25T06:56:23;16.00;99.90
24645;DHT22;12780;45.502;9.146;2023-04-25T06:58:49;16.10;99.90
24645;DHT22;12780;45.502;9.146;2023-04-25T07:01:14;16.20;99.90
24645;DHT22;12780;45.502;9.146;2023-04-25T07:03:40;16.20;99.90
24645;DHT22;12780;45.502;9.146;2023-04-25T07:06:06;16.20;99.90
24645;DHT22;12780;45.502;9.146;2023-04-25T07:08:32;16.10;99.90
24645;DHT22;12780;45.502;9.146;2023-04-25T07:10:57;16.20;99.90
24645;DHT22;12780;45.502;9.146;2023-04-25T07:13:23;16.20;99.90
24645;DHT22;12780;45.502;9.146;2023-04-25T07:15:49;16.30;99.90
24645;DHT22;12780;45.502;9.146;2023-04-25T07:18:14;16.40;99.90
24645;DHT22;12780;45.502;9.146;2023-04-25T07:20:40;16.60;99.90
24645;DHT22;12780;45.502;9.146;2023-04-25T07:23:06;16.70;99.90
24645;DHT22;12780;45.502;9.146;2023-04-25T07:25:32;16.70;99.90
24645;DHT22;12780;45.502;9.146;2023-04-25T07:27:57;16.80;99.90
24645;DHT22;12780;45.502;9.146;2023-04-25T07:30:23;16.80;99.90
24645;DHT22;12780;45.502;9.146;2023-04-25T07:32:49;16.70;99.90
24645;DHT22;12780;45.502;9.146;2023-04-25T07:35:15;16.80;99.90
24645;DHT22;12780;45.502;9.146;2023-04-25T07:37:41;16.80;99.90
24645;DHT22;12780;45.502;9.146;2023-04-25T07:40:07;16.70;99.90
24645;DHT22;12780;45.502;9.146;2023-04-25T07:42:34;16.90;99.90
24645;DHT22;12780;45.502;9.146;2023-04-25T07:45:00;17.00;99.90
24645;DHT22;12780;45.502;9.146;2023-04-25T07:47:26;17.10;99.90
24645;DHT22;12780;45.502;9.146;2023-04-25T07:49:51;17.10;99.90
24645;DHT22;12780;45.502;9.146;2023-04-25T07:52:17;17.10;99.90
24645;DHT22;12780;45.502;9.146;2023-04-25T07:54:42;17.10;99.90
24645;DHT22;12780;45.502;9.146;2023-04-25T07:57:08;17.00;99.90
24645;DHT22;12780;45.502;9.146;2023-04-25T07:59:34;17.00;99.90
24645;DHT22;12780;45.502;9.146;2023-04-25T08:02:00;17.10;99.90
24645;DHT22;12780;45.502;9.146;2023-04-25T08:04:26;17.20;99.90
24645;DHT22;12780;45.502;9.146;2023-04-25T08:06:52;17.30;99.90
24645;DHT22;12780;45.502;9.146;2023-04-25T08:09:19;17.30;99.90
24645;DHT22;12780;45.502;9.146;2023-04-25T08:11:45;17.40;99.90
24645;DHT22;12780;45.502;9.146;2023-04-25T08:14:11;17.40;99.90
24645;DHT22;12780;45.502;9.146;2023-04-25T08:16:37;17.50;99.90
24645;DHT22;12780;45.502;9.146;2023-04-25T08:19:03;17.60;99.90
24645;DHT22;12780;45.502;9.146;2023-04-25T08:21:28;17.90;99.90
24645;DHT22;12780;45.502;9.146;2023-04-25T08:23:54;17.80;99.90
24645;DHT22;12780;45.502;9.146;2023-04-25T08:26:20;17.80;99.90
24645;DHT22;12780;45.502;9.146;2023-04-25T08:28:46;17.80;99.90
24645;DHT22;12780;45.502;9.146;2023-04-25T08:31:11;17.80;99.90
24645;DHT22;12780;45.502;9.146;2023-04-25T08:33:37;17.80;99.90
24645;DHT22;12780;45.502;9.146;2023-04-25T08:36:03;17.90;99.90
24645;DHT22;12780;45.502;9.146;2023-04-25T08:38:28;18.00;99.90
24645;DHT22;12780;45.502;9.146;2023-04-25T08:40:55;18.00;99.90
24645;DHT22;12780;45.502;9.146;2023-04-25T08:43:23;17.90;99.90
24645;DHT22;12780;45.502;9.146;2023-04-25T08:45:53;17.90;99.90
24645;DHT22;12780;45.502;9.146;2023-04-25T08:48:19;18.10;99.90
24645;DHT22;12780;45.502;9.146;2023-04-25T08:50:53;18.10;99.90
24645;DHT22;12780;45.502;9.146;2023-04-25T08:53:25;18.30;99.90
24645;DHT22;12780;45.502;9.146;2023-04-25T08:55:52;18.40;99.90
24645;DHT22;12780;45.502;9.146;2023-04-25T08:58:19;18.50;99.90
24645;DHT22;12780;45.502;9.146;2023-04-25T09:00:46;18.60;99.90
24645;DHT22;12780;45.502;9.146;2023-04-25T09:03:12;18.70;99.90
24645;DHT22;12780;45.502;9.146;2023-04-25T09:05:40;18.60;99.90
24645;DHT22;12780;45.502;9.146;2023-04-25T09:08:05;18.80;99.90
24645;DHT22;12780;45.502;9.146;2023-04-25T09:10:31;18.70;99.90
24645;DHT22;12780;45.502;9.146;2023-04-25T09:13:07;18.90;99.90
24645;DHT22;12780;45.502;9.146;2023-04-25T09:15:53;18.90;99.90
24645;DHT22;12780;45.502;9.146;2023-04-25T09:18:29;18.90;99.90
24645;DHT22;12780;45.502;9.146;2023-04-25T09:20:56;18.80;99.90
24645;DHT22;12780;45.502;9.146;2023-04-25T09:23:22;18.80;99.90
24645;DHT22;12780;45.502;9.146;2023-04-25T09:25:50;18.80;99.90
24645;DHT22;12780;45.502;9.146;2023-04-25T09:28:16;18.60;99.90
24645;DHT22;12780;45.502;9.146;2023-04-25T09:30:42;18.40;99.90
24645;DHT22;12780;45.502;9.146;2023-04-25T09:33:09;18.40;99.90
24645;DHT22;12780;45.502;9.146;2023-04-25T09:35:40;18.50;99.90
24645;DHT22;12780;45.502;9.146;2023-04-25T09:38:14;18.40;99.90
24645;DHT22;12780;45.502;9.146;2023-04-25T09:40:45;18.40;99.90
24645;DHT22;12780;45.502;9.146;2023-04-25T09:43:21;18.30;99.90
24645;DHT22;12780;45.502;9.146;2023-04-25T09:45:47;18.20;99.90
24645;DHT22;12780;45.502;9.146;2023-04-25T09:48:18;18.30;99.90
24645;DHT22;12780;45.502;9.146;2023-04-25T09:50:44;18.50;99.90
24645;DHT22;12780;45.502;9.146;2023-04-25T09:53:10;18.60;99.90
24645;DHT22;12780;45.502;9.146;2023-04-25T09:55:36;18.70;99.90
24645;DHT22;12780;45.502;9.146;2023-04-25T09:58:06;18.80;99.90
24645;DHT22;12780;45.502;9.146;2023-04-25T10:00:34;18.80;99.90
24645;DHT22;12780;45.502;9.146;2023-04-25T10:03:04;18.90;99.90
24645;DHT22;12780;45.502;9.146;2023-04-25T10:05:32;18.90;99.90
24645;DHT22;12780;45.502;9.146;2023-04-25T10:08:02;18.90;99.90
24645;DHT22;12780;45.502;9.146;2023-04-25T10:10:29;19.00;99.90
24645;DHT22;12780;45.502;9.146;2023-04-25T10:12:58;19.00;99.90
24645;DHT22;12780;45.502;9.146;2023-04-25T10:15:24;19.10;99.90
24645;DHT22;12780;45.502;9.146;2023-04-25T10:17:50;19.10;99.90
24645;DHT22;12780;45.502;9.146;2023-04-25T10:20:16;19.20;99.90
24645;DHT22;12780;45.502;9.146;2023-04-25T10:22:43;19.30;99.90
24645;DHT22;12780;45.502;9.146;2023-04-25T10:25:10;19.60;99.90
24645;DHT22;12780;45.502;9.146;2023-04-25T10:27:36;19.60;99.90
24645;DHT22;12780;45.502;9.146;2023-04-25T10:30:08;19.70;99.90
24645;DHT22;12780;45.502;9.146;2023-04-25T10:32:36;19.80;99.90
24645;DHT22;12780;45.502;9.146;2023-04-25T10:35:16;19.90;99.90
24645;DHT22;12780;45.502;9.146;2023-04-25T10:38:10;20.00;99.90
24645;DHT22;12780;45.502;9.146;2023-04-25T10:40:36;20.10;99.90
24645;DHT22;12780;45.502;9.146;2023-04-25T10:43:42;20.10;99.90
24645;DHT22;12780;45.502;9.146;2023-04-25T10:46:16;20.10;99.90
24645;DHT22;12780;45.502;9.146;2023-04-25T10:48:49;20.10;99.90
24645;DHT22;12780;45.502;9.146;2023-04-25T10:53:46;20.20;99.90
24645;DHT22;12780;45.502;9.146;2023-04-25T10:59:17;20.60;99.90
24645;DHT22;12780;45.502;9.146;2023-04-25T11:01:45;20.70;99.90
24645;DHT22;12780;45.502;9.146;2023-04-25T11:09:23;20.30;99.90
24645;DHT22;12780;45.502;9.146;2023-04-25T11:11:56;20.10;99.90
24645;DHT22;12780;45.502;9.146;2023-04-25T11:14:22;19.80;99.90
24645;DHT22;12780;45.502;9.146;2023-04-25T11:16:56;19.70;99.90
24645;DHT22;12780;45.502;9.146;2023-04-25T11:19:22;19.70;99.90
24645;DHT22;12780;45.502;9.146;2023-04-25T11:21:48;19.90;99.90
24645;DHT22;12780;45.502;9.146;2023-04-25T11:24:16;20.10;99.90
24645;DHT22;12780;45.502;9.146;2023-04-25T11:26:42;20.40;99.90
24645;DHT22;12780;45.502;9.146;2023-04-25T11:29:08;20.30;99.90
24645;DHT22;12780;45.502;9.146;2023-04-25T11:31:34;20.30;99.90
24645;DHT22;12780;45.502;9.146;2023-04-25T11:34:00;20.50;99.90
24645;DHT22;12780;45.502;9.146;2023-04-25T11:36:26;20.60;99.90
24645;DHT22;12780;45.502;9.146;2023-04-25T11:38:53;20.90;99.90
24645;DHT22;12780;45.502;9.146;2023-04-25T11:41:19;21.10;99.90
24645;DHT22;12780;45.502;9.146;2023-04-25T11:43:45;21.00;99.90
24645;DHT22;12780;45.502;9.146;2023-04-25T11:46:11;21.10;99.90
24645;DHT22;12780;45.502;9.146;2023-04-25T11:48:38;21.10;99.90
24645;DHT22;12780;45.502;9.146;2023-04-25T11:51:04;21.20;99.90
24645;DHT22;12780;45.502;9.146;2023-04-25T11:53:29;21.20;99.90
24645;DHT22;12780;45.502;9.146;2023-04-25T11:55:55;21.30;99.90
24645;DHT22;12780;45.502;9.146;2023-04-25T11:58:21;21.40;99.90
24645;DHT22;12780;45.502;9.146;2023-04-25T12:00:47;21.70;99.90
24645;DHT22;12780;45.502;9.146;2023-04-25T12:03:12;21.90;99.90
24645;DHT22;12780;45.502;9.146;2023-04-25T12:05:38;21.90;99.90
24645;DHT22;12780;45.502;9.146;2023-04-25T12:08:15;22.10;99.90
24645;DHT22;12780;45.502;9.146;2023-04-25T12:10:44;22.30;99.90
24645;DHT22;12780;45.502;9.146;2023-04-25T12:13:24;22.40;99.90
24645;DHT22;12780;45.502;9.146;2023-04-25T12:15:50;22.40;99.90
24645;DHT22;12780;45.502;9.146;2023-04-25T12:18:20;22.20;99.90
24645;DHT22;12780;45.502;9.146;2023-04-25T12:20:46;22.00;99.90
24645;DHT22;12780;45.502;9.146;2023-04-25T12:23:12;21.80;99.90
24645;DHT22;12780;45.502;9.146;2023-04-25T12:25:40;21.60;99.90
24645;DHT22;12780;45.502;9.146;2023-04-25T12:30:55;21.20;99.90
24645;DHT22;12780;45.502;9.146;2023-04-25T12:33:22;21.00;99.90
24645;DHT22;12780;45.502;9.146;2023-04-25T12:35:47;20.90;99.90
24645;DHT22;12780;45.502;9.146;2023-04-25T12:38:23;20.70;99.90
24645;DHT22;12780;45.502;9.146;2023-04-25T12:40:48;20.60;99.90
24645;DHT22;12780;45.502;9.146;2023-04-25T12:43:14;20.50;99.90
24645;DHT22;12780;45.502;9.146;2023-04-25T12:45:40;20.40;99.90
24645;DHT22;12780;45.502;9.146;2023-04-25T12:48:05;20.20;99.90
24645;DHT22;12780;45.502;9.146;2023-04-25T12:50:31;19.90;99.90
24645;DHT22;12780;45.502;9.146;2023-04-25T12:52:57;19.80;99.90
24645;DHT22;12780;45.502;9.146;2023-04-25T12:55:22;19.50;99.90
24645;DHT22;12780;45.502;9.146;2023-04-25T12:57:48;19.30;99.90
24645;DHT22;12780;45.502;9.146;2023-04-25T13:00:14;19.00;99.90
24645;DHT22;12780;45.502;9.146;2023-04-25T13:02:43;18.30;99.90
24645;DHT22;12780;45.502;9.146;2023-04-25T13:05:08;17.50;99.90
24645;DHT22;12780;45.502;9.146;2023-04-25T13:07:34;17.00;99.90
24645;DHT22;12780;45.502;9.146;2023-04-25T13:10:00;16.60;99.90
24645;DHT22;12780;45.502;9.146;2023-04-25T13:12:27;16.60;99.90
24645;DHT22;12780;45.502;9.146;2023-04-25T13:14:53;16.20;99.90
24645;DHT22;12780;45.502;9.146;2023-04-25T13:17:18;16.20;99.90
24645;DHT22;12780;45.502;9.146;2023-04-25T13:19:44;16.20;99.90
24645;DHT22;12780;45.502;9.146;2023-04-25T13:22:10;16.30;99.90
24645;DHT22;12780;45.502;9.146;2023-04-25T13:24:36;16.40;99.90
24645;DHT22;12780;45.502;9.146;2023-04-25T13:27:01;16.70;99.90
24645;DHT22;12780;45.502;9.146;2023-04-25T13:29:27;16.80;99.90
24645;DHT22;12780;45.502;9.146;2023-04-25T13:31:52;16.70;99.90
24645;DHT22;12780;45.502;9.146;2023-04-25T13:34:18;16.80;99.90
24645;DHT22;12780;45.502;9.146;2023-04-25T13:36:44;16.80;99.90
24645;DHT22;12780;45.502;9.146;2023-04-25T13:39:10;16.80;99.90
24645;DHT22;12780;45.502;9.146;2023-04-25T13:41:36;16.80;99.90
24645;DHT22;12780;45.502;9.146;2023-04-25T13:44:02;16.90;99.90
24645;DHT22;12780;45.502;9.146;2023-04-25T13:46:28;17.00;99.90
24645;DHT22;12780;45.502;9.146;2023-04-25T13:48:53;17.20;99.90
24645;DHT22;12780;45.502;9.146;2023-04-25T13:51:19;17.30;99.90
24645;DHT22;12780;45.502;9.146;2023-04-25T13:53:44;17.50;99.90
24645;DHT22;12780;45.502;9.146;2023-04-25T13:56:10;17.70;99.90
24645;DHT22;12780;45.502;9.146;2023-04-25T13:58:37;17.80;99.90
24645;DHT22;12780;45.502;9.146;2023-04-25T14:01:02;17.80;99.90
24645;DHT22;12780;45.502;9.146;2023-04-25T14:03:29;18.10;99.90
24645;DHT22;12780;45.502;9.146;2023-04-25T14:05:55;18.10;99.90
24645;DHT22;12780;45.502;9.146;2023-04-25T14:08:21;18.20;99.90
24645;DHT22;12780;45.502;9.146;2023-04-25T14:10:46;18.30;99.90
24645;DHT22;12780;45.502;9.146;2023-04-25T14:13:12;18.20;99.90
24645;DHT22;12780;45.502;9.146;2023-04-25T14:15:37;18.40;99.90
24645;DHT22;12780;45.502;9.146;2023-04-25T14:18:03;18.50;99.90
24645;DHT22;12780;45.502;9.146;2023-04-25T14:20:29;18.50;99.90
24645;DHT22;12780;45.502;9.146;2023-04-25T14:22:55;18.60;99.90
24645;DHT22;12780;45.502;9.146;2023-04-25T14:25:22;18.60;99.90
24645;DHT22;12780;45.502;9.146;2023-04-25T14:27:48;18.70;99.90
24645;DHT22;12780;45.502;9.146;2023-04-25T14:30:19;18.60;99.90
24645;DHT22;12780;45.502;9.146;2023-04-25T14:32:45;18.60;99.90
24645;DHT22;12780;45.502;9.146;2023-04-25T14:35:11;18.60;99.90
24645;DHT22;12780;45.502;9.146;2023-04-25T14:37:36;18.70;99.90
24645;DHT22;12780;45.502;9.146;2023-04-25T14:40:02;18.80;99.90
24645;DHT22;12780;45.502;9.146;2023-04-25T14:42:28;18.70;99.90
24645;DHT22;12780;45.502;9.146;2023-04-25T14:44:54;18.80;99.90
24645;DHT22;12780;45.502;9.146;2023-04-25T14:47:19;18.70;99.90
24645;DHT22;12780;45.502;9.146;2023-04-25T14:49:45;18.80;99.90
24645;DHT22;12780;45.502;9.146;2023-04-25T14:52:16;19.00;99.90
24645;DHT22;12780;45.502;9.146;2023-04-25T14:54:42;19.10;99.90
24645;DHT22;12780;45.502;9.146;2023-04-25T14:57:07;19.20;99.90
24645;DHT22;12780;45.502;9.146;2023-04-25T14:59:33;19.20;99.90
24645;DHT22;12780;45.502;9.146;2023-04-25T15:01:58;19.20;99.90
24645;DHT22;12780;45.502;9.146;2023-04-25T15:04:24;19.20;99.90
24645;DHT22;12780;45.502;9.146;2023-04-25T15:06:49;19.30;99.90
24645;DHT22;12780;45.502;9.146;2023-04-25T15:09:15;19.60;99.90
24645;DHT22;12780;45.502;9.146;2023-04-25T15:11:42;19.40;99.90
24645;DHT22;12780;45.502;9.146;2023-04-25T15:14:07;19.60;99.90
24645;DHT22;12780;45.502;9.146;2023-04-25T15:16:33;19.70;99.90
24645;DHT22;12780;45.502;9.146;2023-04-25T15:18:58;19.60;99.90
24645;DHT22;12780;45.502;9.146;2023-04-25T15:21:24;19.50;99.90
24645;DHT22;12780;45.502;9.146;2023-04-25T15:23:50;19.60;99.90
24645;DHT22;12780;45.502;9.146;2023-04-25T15:26:16;19.60;99.90
24645;DHT22;12780;45.502;9.146;2023-04-25T15:28:41;19.60;99.90
24645;DHT22;12780;45.502;9.146;2023-04-25T15:31:07;19.70;99.90
24645;DHT22;12780;45.502;9.146;2023-04-25T15:33:33;19.80;99.90
24645;DHT22;12780;45.502;9.146;2023-04-25T15:35:59;19.80;99.90
24645;DHT22;12780;45.502;9.146;2023-04-25T15:38:24;19.80;99.90
24645;DHT22;12780;45.502;9.146;2023-04-25T15:40:51;19.80;99.90